createdAt,value
2022-10-02T00:02:02.105Z,33.20
2022-10-02T00:04:38.214Z,28.87
2022-10-02T00:07:11.085Z,11.17
2022-10-02T00:09:45.502Z,16.87
2022-10-02T00:12:17.482Z,19.20
2022-10-02T00:14:48.529Z,11.63
2022-10-02T00:17:21.978Z,22.30
2022-10-02T00:19:54.447Z,11.33
2022-10-02T00:22:34.206Z,19.43
2022-10-02T00:25:10.172Z,7.80
2022-10-02T00:27:49.696Z,10.90
2022-10-02T00:30:19.412Z,12.37
2022-10-02T00:33:00.616Z,30.63
2022-10-02T00:35:54.742Z,31.80
2022-10-02T00:38:38.555Z,29.80
2022-10-02T00:41:36.103Z,12.43
2022-10-02T00:44:17.435Z,17.13
2022-10-02T00:46:57.285Z,15.83
2022-10-02T00:49:50.722Z,32.40
2022-10-02T00:52:36.361Z,35.67
2022-10-02T00:55:32.937Z,19.77
2022-10-02T00:58:32.580Z,15.63
2022-10-02T01:01:06.641Z,18.53
2022-10-02T01:03:40.710Z,19.23
2022-10-02T01:06:09.707Z,23.90
2022-10-02T01:08:38.219Z,47.90
2022-10-02T01:11:08.470Z,19.80
2022-10-02T01:13:37.962Z,26.67
2022-10-02T01:16:10.283Z,26.90
2022-10-02T01:18:38.679Z,16.07
2022-10-02T01:21:16.991Z,16.17
2022-10-02T01:23:51.742Z,24.63
2022-10-02T01:26:21.689Z,24.77
2022-10-02T01:28:49.734Z,50.73
2022-10-02T01:31:18.773Z,154.53
2022-10-02T01:33:49.556Z,41.23
2022-10-02T01:36:18.254Z,18.67
2022-10-02T01:38:48.947Z,22.40
2022-10-02T01:41:16.988Z,26.83
2022-10-02T01:43:49.443Z,42.77
2022-10-02T01:46:32.994Z,25.47
2022-10-02T01:49:18.459Z,20.07
2022-10-02T01:52:28.117Z,44.93
2022-10-02T01:55:10.332Z,17.03
2022-10-02T01:57:50.287Z,60.63
2022-10-02T02:00:22.317Z,22.33
2022-10-02T02:02:57.322Z,15.73
2022-10-02T02:05:33.714Z,22.27
2022-10-02T02:08:09.932Z,35.10
2022-10-02T02:10:46.738Z,15.87
2022-10-02T02:13:18.906Z,40.83
2022-10-02T02:15:55.055Z,51.97
2022-10-02T02:18:29.502Z,19.40
2022-10-02T02:21:03.642Z,57.23
2022-10-02T02:23:35.593Z,19.13
2022-10-02T02:26:07.714Z,106.77
2022-10-02T02:28:38.432Z,80.10
2022-10-02T02:31:12.734Z,24.40
2022-10-02T02:33:45.046Z,15.90
2022-10-02T02:36:16.978Z,64.43
2022-10-02T02:38:49.992Z,33.23
2022-10-02T02:41:24.381Z,22.10
2022-10-02T02:43:57.314Z,53.03
2022-10-02T02:46:31.629Z,113.63
2022-10-02T02:49:05.534Z,45.43
2022-10-02T02:51:38.707Z,61.93
2022-10-02T02:54:13.811Z,20.73
2022-10-02T02:56:43.237Z,21.63
2022-10-02T02:59:13.458Z,23.70
2022-10-02T03:01:43.748Z,35.37
2022-10-02T03:04:13.837Z,24.43
2022-10-02T03:06:44.263Z,61.73
2022-10-02T03:09:16.099Z,114.97
2022-10-02T03:11:52.821Z,24.97
2022-10-02T03:14:53.281Z,38.83
2022-10-02T03:17:34.989Z,22.73
2022-10-02T03:20:12.085Z,71.23
2022-10-02T03:22:49.154Z,23.27
2022-10-02T03:25:26.173Z,46.73
2022-10-02T03:28:03.208Z,64.93
2022-10-02T03:30:31.987Z,162.77
2022-10-02T03:33:02.177Z,34.63
2022-10-02T03:35:31.483Z,29.47
2022-10-02T03:38:03.614Z,19.10
2022-10-02T03:40:31.889Z,52.03
2022-10-02T03:42:59.935Z,65.23
2022-10-02T03:45:50.098Z,137.70
2022-10-02T03:48:18.780Z,114.43
2022-10-02T03:50:46.924Z,129.43
2022-10-02T03:53:17.109Z,17.33
2022-10-02T03:55:49.149Z,118.37
2022-10-02T03:58:19.525Z,23.30
2022-10-02T04:00:56.285Z,44.37
2022-10-02T04:03:29.158Z,44.17
2022-10-02T04:06:02.098Z,56.60
2022-10-02T04:08:35.606Z,72.20
2022-10-02T04:11:09.425Z,192.70
2022-10-02T04:13:42.508Z,79.10
2022-10-02T04:16:16.601Z,78.37
2022-10-02T04:18:53.633Z,32.97
2022-10-02T04:21:34.299Z,41.67
2022-10-02T04:24:10.621Z,88.87
2022-10-02T04:26:45.119Z,110.77
2022-10-02T04:29:19.964Z,90.60
2022-10-02T04:31:52.574Z,64.17
2022-10-02T04:34:21.992Z,281.10
2022-10-02T04:37:05.999Z,31.87
2022-10-02T04:39:51.846Z,60.10
2022-10-02T04:42:36.068Z,28.40
2022-10-02T04:45:18.618Z,41.30
2022-10-02T04:48:15.788Z,23.27
2022-10-02T04:50:53.319Z,121.40
2022-10-02T04:53:41.458Z,23.03
2022-10-02T04:56:36.705Z,36.97
2022-10-02T04:59:22.726Z,45.07
2022-10-02T05:02:03.095Z,90.33
2022-10-02T05:04:50.711Z,75.00
2022-10-02T05:07:51.572Z,81.90
2022-10-02T05:10:44.332Z,67.57
2022-10-02T05:13:24.784Z,30.07
2022-10-02T05:16:11.748Z,87.63
2022-10-02T05:19:01.477Z,156.30
2022-10-02T05:21:47.842Z,93.93
2022-10-02T05:24:43.962Z,36.13
2022-10-02T05:27:25.883Z,28.67
2022-10-02T05:30:12.083Z,24.90
2022-10-02T05:33:05.311Z,60.20
2022-10-02T05:36:00.404Z,41.73
2022-10-02T05:38:58.726Z,48.43
2022-10-02T05:41:35.193Z,82.17
2022-10-02T05:44:08.891Z,85.23
2022-10-02T05:46:41.638Z,27.70
2022-10-02T05:49:17.568Z,153.10
2022-10-02T05:51:53.657Z,72.90
2022-10-02T05:54:31.283Z,119.20
2022-10-02T05:57:08.512Z,293.90
2022-10-02T05:59:44.206Z,122.77
2022-10-02T06:02:22.092Z,118.90
2022-10-02T06:04:59.012Z,72.90
2022-10-02T06:07:29.323Z,56.27
2022-10-02T06:10:03.165Z,67.20
2022-10-02T06:12:39.680Z,41.03
2022-10-02T06:15:13.170Z,103.70
2022-10-02T06:17:47.286Z,190.37
2022-10-02T06:20:23.394Z,146.40
2022-10-02T06:22:56.833Z,129.03
2022-10-02T06:25:30.636Z,141.90
2022-10-02T06:28:07.559Z,177.57
2022-10-02T06:30:39.783Z,302.90
2022-10-02T06:33:15.592Z,18.10
2022-10-02T06:36:06.601Z,79.13
2022-10-02T06:38:49.482Z,155.33
2022-10-02T06:41:29.741Z,59.17
2022-10-02T06:44:13.166Z,65.93
2022-10-02T06:46:51.457Z,96.40
2022-10-02T06:49:28.795Z,140.90
2022-10-02T06:52:09.012Z,197.33
2022-10-02T06:54:56.029Z,95.57
2022-10-02T06:57:34.274Z,156.27
2022-10-02T07:00:12.173Z,137.50
2022-10-02T07:03:06.676Z,260.80
2022-10-02T07:05:56.339Z,211.20
2022-10-02T07:08:37.446Z,111.50
2022-10-02T07:11:14.722Z,148.83
2022-10-02T07:14:07.992Z,274.43
2022-10-02T07:17:01.260Z,171.80
2022-10-02T07:19:45.643Z,54.17
2022-10-02T07:22:44.019Z,134.23
2022-10-02T07:25:36.258Z,78.97
2022-10-02T07:28:14.524Z,40.17
2022-10-02T07:30:52.246Z,166.03
2022-10-02T07:33:31.578Z,18.17
2022-10-02T07:36:04.575Z,94.10
2022-10-02T07:38:47.059Z,18.90
2022-10-02T07:41:42.649Z,134.13
2022-10-02T07:44:23.149Z,245.53
2022-10-02T07:46:56.121Z,205.17
2022-10-02T07:49:41.074Z,28.57
2022-10-02T07:52:20.078Z,232.87
2022-10-02T07:55:00.453Z,148.07
2022-10-02T07:57:39.415Z,154.40
2022-10-02T08:00:13.011Z,167.97
2022-10-02T08:02:47.920Z,156.27
2022-10-02T08:05:23.365Z,147.17
2022-10-02T08:07:56.767Z,262.37
2022-10-02T08:10:28.381Z,200.37
2022-10-02T08:13:03.906Z,216.87
2022-10-02T08:15:38.617Z,186.23
2022-10-02T08:18:33.595Z,310.97
2022-10-02T08:21:06.489Z,213.77
2022-10-02T08:23:40.316Z,209.30
2022-10-02T08:26:12.666Z,247.63
2022-10-02T08:28:47.975Z,293.57
2022-10-02T08:31:16.314Z,310.23
2022-10-02T08:33:44.385Z,319.47
2022-10-02T08:36:51.860Z,345.60
2022-10-02T08:39:38.845Z,141.63
2022-10-02T08:42:43.748Z,230.67
2022-10-02T08:45:54.288Z,209.73
2022-10-02T08:49:13.180Z,140.63
2022-10-02T08:52:05.810Z,226.63
2022-10-02T08:54:59.256Z,256.83
2022-10-02T08:58:03.478Z,224.70
2022-10-02T09:00:42.742Z,208.53
2022-10-02T09:03:54.221Z,299.23
2022-10-02T09:07:19.623Z,208.43
2022-10-02T09:10:14.571Z,181.47
2022-10-02T09:13:08.364Z,311.87
2022-10-02T09:15:46.383Z,255.20
2022-10-02T09:18:20.267Z,369.77
2022-10-02T09:21:16.484Z,210.87
2022-10-02T09:24:22.127Z,173.40
2022-10-02T09:27:18.812Z,231.47
2022-10-02T09:30:11.190Z,262.90
2022-10-02T09:33:31.363Z,177.40
2022-10-02T09:36:32.263Z,290.90
2022-10-02T09:39:25.071Z,301.20
2022-10-02T09:42:20.015Z,189.83
2022-10-02T09:45:48.959Z,314.23
2022-10-02T09:48:54.104Z,379.87
2022-10-02T09:51:57.844Z,414.60
2022-10-02T09:55:02.597Z,320.60
2022-10-02T09:58:11.815Z,277.43
2022-10-02T10:01:19.249Z,153.03
2022-10-02T10:04:12.671Z,172.43
2022-10-02T10:07:23.831Z,221.57
2022-10-02T10:10:38.947Z,308.47
2022-10-02T10:13:53.986Z,216.93
2022-10-02T10:17:05.795Z,188.80
2022-10-02T10:20:01.770Z,339.02
2022-10-02T10:23:08.450Z,250.88
2022-10-02T10:26:15.198Z,398.88
2022-10-02T10:29:22.318Z,369.95
2022-10-02T10:32:32.046Z,334.70
2022-10-02T10:35:34.894Z,230.82
2022-10-02T10:38:39.119Z,291.15
2022-10-02T10:41:37.368Z,183.63
2022-10-02T10:44:29.777Z,240.73
2022-10-02T10:47:34.736Z,297.00
2022-10-02T10:50:20.679Z,261.25
2022-10-02T10:53:04.362Z,273.65
2022-10-02T10:55:50.030Z,405.08
2022-10-02T10:58:25.178Z,239.60
2022-10-02T11:01:11.047Z,342.80
2022-10-02T11:04:03.256Z,301.27
2022-10-02T11:06:50.372Z,350.90
2022-10-02T11:09:53.574Z,356.75
2022-10-02T11:12:42.400Z,388.90
2022-10-02T11:15:24.120Z,283.08
2022-10-02T11:18:14.659Z,360.17
2022-10-02T11:21:11.484Z,310.48
2022-10-02T11:24:05.997Z,390.70
2022-10-02T11:26:47.668Z,306.08
2022-10-02T11:30:03.913Z,423.52
2022-10-02T11:33:10.749Z,367.88
2022-10-02T11:36:04.496Z,349.83
2022-10-02T11:39:06.654Z,364.38
2022-10-02T11:41:59.394Z,388.70
2022-10-02T11:44:48.431Z,349.63
2022-10-02T11:47:37.854Z,360.75
2022-10-02T11:50:43.803Z,288.48
2022-10-02T11:53:34.448Z,454.42
2022-10-02T11:56:22.257Z,604.53
2022-10-02T11:59:06.350Z,446.55
2022-10-02T12:01:41.633Z,427.25
2022-10-02T12:04:35.266Z,313.77
2022-10-02T12:07:26.819Z,405.95
2022-10-02T12:10:19.709Z,375.95
2022-10-02T12:13:01.355Z,460.65
2022-10-02T12:15:39.536Z,274.42
2022-10-02T12:18:25.226Z,287.38
2022-10-02T12:21:24.937Z,365.92
2022-10-02T12:24:27.390Z,364.55
2022-10-02T12:27:09.860Z,335.75
2022-10-02T12:30:02.345Z,288.95
2022-10-02T12:32:58.242Z,323.85
2022-10-02T12:35:45.878Z,524.58
2022-10-02T12:38:25.411Z,327.38
2022-10-02T12:41:03.813Z,367.77
2022-10-02T12:44:17.096Z,400.90
2022-10-02T12:47:06.909Z,348.85
2022-10-02T12:49:50.708Z,411.67
2022-10-02T12:52:54.034Z,286.80
2022-10-02T12:55:48.828Z,215.50
2022-10-02T12:58:25.287Z,371.15
2022-10-02T13:01:31.743Z,372.48
2022-10-02T13:04:30.272Z,310.33
2022-10-02T13:07:38.252Z,289.67
2022-10-02T13:10:17.287Z,364.60
2022-10-02T13:12:58.118Z,422.63
2022-10-02T13:15:45.714Z,311.75
2022-10-02T13:18:43.987Z,440.25
2022-10-02T13:21:18.875Z,308.23
2022-10-02T13:23:55.718Z,336.50
2022-10-02T13:26:34.105Z,351.90
2022-10-02T13:29:35.918Z,319.08
2022-10-02T13:32:26.066Z,309.38
2022-10-02T13:35:12.142Z,303.77
2022-10-02T13:37:52.543Z,282.65
2022-10-02T13:40:31.136Z,287.60
2022-10-02T13:43:34.588Z,370.30
2022-10-02T13:46:09.404Z,494.13
2022-10-02T13:48:54.933Z,341.40
2022-10-02T13:51:32.564Z,296.75
2022-10-02T13:54:31.452Z,350.38
2022-10-02T13:57:10.983Z,227.27
2022-10-02T13:59:51.955Z,344.80
2022-10-02T14:02:38.753Z,278.15
2022-10-02T14:05:15.935Z,295.50
2022-10-02T14:08:05.452Z,304.50
2022-10-02T14:10:42.592Z,331.73
2022-10-02T14:13:26.076Z,289.75
2022-10-02T14:16:17.854Z,343.27
2022-10-02T14:18:59.308Z,278.90
2022-10-02T14:21:32.711Z,215.30
2022-10-02T14:24:48.191Z,294.15
2022-10-02T14:27:24.770Z,385.35
2022-10-02T14:30:01.840Z,303.80
2022-10-02T14:32:41.997Z,259.17
2022-10-02T14:35:42.322Z,300.00
2022-10-02T14:38:41.630Z,287.30
2022-10-02T14:41:39.729Z,271.05
2022-10-02T14:44:50.088Z,286.25
2022-10-02T14:47:39.146Z,277.55
2022-10-02T14:50:22.997Z,253.95
2022-10-02T14:53:10.175Z,386.65
2022-10-02T14:56:08.000Z,320.88
2022-10-02T14:58:50.448Z,133.88
2022-10-02T15:01:23.313Z,250.52
2022-10-02T15:04:25.438Z,140.57
2022-10-02T15:07:04.475Z,261.30
2022-10-02T15:09:41.223Z,195.10
2022-10-02T15:12:14.888Z,203.10
2022-10-02T15:14:54.985Z,264.45
2022-10-02T15:17:53.123Z,260.33
2022-10-02T15:20:30.254Z,291.52
2022-10-02T15:23:00.564Z,172.73
2022-10-02T15:26:02.976Z,249.25
2022-10-02T15:28:44.657Z,189.73
2022-10-02T15:31:24.171Z,144.70
2022-10-02T15:34:04.955Z,298.25
2022-10-02T15:37:09.103Z,136.33
2022-10-02T15:40:04.859Z,167.60
2022-10-02T15:43:04.503Z,221.63
2022-10-02T15:45:42.425Z,200.50
2022-10-02T15:48:30.818Z,196.77
2022-10-02T15:51:09.281Z,179.77
2022-10-02T15:53:53.522Z,224.93
2022-10-02T15:56:36.746Z,186.90
2022-10-02T15:59:18.636Z,128.33
2022-10-02T16:01:58.404Z,145.17
2022-10-02T16:04:34.007Z,173.63
2022-10-02T16:07:41.991Z,256.73
2022-10-02T16:10:21.604Z,182.83
2022-10-02T16:13:13.796Z,170.80
2022-10-02T16:15:52.172Z,117.03
2022-10-02T16:18:32.848Z,231.57
2022-10-02T16:21:21.091Z,228.67
2022-10-02T16:24:31.594Z,310.48
2022-10-02T16:27:21.515Z,193.95
2022-10-02T16:30:08.285Z,294.63
2022-10-02T16:32:49.569Z,152.97
2022-10-02T16:35:26.539Z,165.07
2022-10-02T16:38:01.042Z,100.37
2022-10-02T16:40:39.836Z,158.27
2022-10-02T16:43:36.861Z,144.43
2022-10-02T16:46:11.834Z,117.00
2022-10-02T16:48:49.919Z,60.23
2022-10-02T16:51:32.398Z,52.70
2022-10-02T16:54:10.609Z,208.50
2022-10-02T16:56:51.025Z,206.60
2022-10-02T16:59:25.274Z,122.83
2022-10-02T17:02:16.529Z,170.50
2022-10-02T17:04:54.772Z,221.37
2022-10-02T17:07:31.257Z,101.37
2022-10-02T17:10:06.114Z,153.60
2022-10-02T17:12:47.974Z,242.77
2022-10-02T17:15:23.043Z,118.60
2022-10-02T17:18:10.057Z,33.80
2022-10-02T17:20:43.573Z,68.50
2022-10-02T17:23:17.806Z,63.27
2022-10-02T17:25:53.862Z,127.73
2022-10-02T17:28:26.852Z,53.70
2022-10-02T17:31:20.537Z,69.03
2022-10-02T17:33:53.128Z,27.53
2022-10-02T17:36:31.703Z,216.67
2022-10-02T17:39:17.823Z,171.63
2022-10-02T17:41:54.353Z,131.77
2022-10-02T17:44:34.152Z,40.37
2022-10-02T17:47:34.755Z,194.40
2022-10-02T17:50:35.798Z,27.97
2022-10-02T17:53:32.495Z,51.13
2022-10-02T17:56:28.650Z,91.57
2022-10-02T17:59:11.613Z,35.33
2022-10-02T18:01:46.232Z,44.40
2022-10-02T18:04:23.248Z,51.03
2022-10-02T18:07:07.645Z,32.10
2022-10-02T18:09:50.360Z,30.07
2022-10-02T18:12:40.078Z,85.87
2022-10-02T18:15:23.006Z,59.00
2022-10-02T18:18:09.354Z,40.13
2022-10-02T18:20:50.199Z,17.20
2022-10-02T18:23:36.763Z,88.97
2022-10-02T18:26:19.080Z,38.70
2022-10-02T18:29:10.986Z,99.43
2022-10-02T18:31:58.023Z,28.43
2022-10-02T18:34:44.125Z,19.83
2022-10-02T18:37:29.335Z,30.83
2022-10-02T18:40:15.293Z,54.37
2022-10-02T18:42:54.925Z,34.43
2022-10-02T18:45:33.954Z,77.63
2022-10-02T18:48:23.342Z,87.30
2022-10-02T18:51:07.512Z,25.30
2022-10-02T18:53:59.492Z,32.77
2022-10-02T18:56:54.320Z,24.37
2022-10-02T18:59:33.701Z,31.53
2022-10-02T19:02:13.988Z,22.77
2022-10-02T19:04:55.313Z,31.70
2022-10-02T19:07:30.386Z,21.07
2022-10-02T19:10:28.899Z,27.83
2022-10-02T19:13:01.427Z,14.90
2022-10-02T19:15:31.999Z,27.77
2022-10-02T19:18:02.159Z,56.10
2022-10-02T19:20:49.055Z,19.97
2022-10-02T19:23:32.422Z,28.60
2022-10-02T19:26:15.802Z,34.90
2022-10-02T19:28:48.374Z,22.70
2022-10-02T19:31:23.048Z,31.13
2022-10-02T19:33:54.759Z,96.33
2022-10-02T19:36:28.296Z,51.27
2022-10-02T19:39:01.513Z,21.53
2022-10-02T19:41:35.934Z,37.13
2022-10-02T19:44:07.490Z,26.20
2022-10-02T19:46:40.809Z,26.77
2022-10-02T19:49:15.468Z,27.27
2022-10-02T19:51:45.842Z,14.70
2022-10-02T19:54:20.902Z,21.10
2022-10-02T19:56:50.409Z,36.33
2022-10-02T19:59:20.560Z,41.37
2022-10-02T20:01:52.906Z,30.43
2022-10-02T20:04:23.733Z,14.80
2022-10-02T20:06:54.498Z,29.10
2022-10-02T20:09:30.799Z,24.30
2022-10-02T20:12:04.816Z,31.13
2022-10-02T20:14:38.429Z,14.30
2022-10-02T20:17:12.788Z,10.43
2022-10-02T20:19:45.727Z,29.30
2022-10-02T20:22:24.114Z,17.27
2022-10-02T20:24:59.768Z,43.60
2022-10-02T20:27:36.474Z,26.33
2022-10-02T20:30:10.757Z,37.17
2022-10-02T20:32:43.291Z,24.27
2022-10-02T20:35:16.863Z,14.33
2022-10-02T20:37:48.519Z,16.77
2022-10-02T20:40:21.206Z,28.03
2022-10-02T20:42:55.257Z,19.47
2022-10-02T20:45:28.152Z,8.17
2022-10-02T20:48:56.013Z,35.57
2022-10-02T20:51:45.076Z,12.63
2022-10-02T20:54:35.706Z,33.50
2022-10-02T20:58:00.215Z,24.90
2022-10-02T21:00:34.247Z,11.47
2022-10-02T21:03:32.392Z,14.77
2022-10-02T21:06:35.663Z,8.90
2022-10-02T21:09:47.085Z,126.10
2022-10-02T21:12:53.718Z,35.83
2022-10-02T21:15:47.162Z,37.30
2022-10-02T21:18:48.530Z,29.50
2022-10-02T21:21:53.676Z,12.07
2022-10-02T21:24:58.134Z,11.07
2022-10-02T21:27:53.711Z,31.97
2022-10-02T21:30:25.354Z,22.83
2022-10-02T21:33:06.143Z,19.03
2022-10-02T21:35:48.844Z,17.17
2022-10-02T21:38:45.002Z,26.97
2022-10-02T21:41:57.514Z,13.43
2022-10-02T21:45:10.190Z,8.20
2022-10-02T21:48:22.502Z,6.27
2022-10-02T21:51:29.874Z,10.50
2022-10-02T21:54:49.977Z,26.70
2022-10-02T21:58:02.811Z,12.70
2022-10-02T22:00:32.249Z,16.37
2022-10-02T22:03:45.615Z,13.30
2022-10-02T22:06:37.533Z,10.20
2022-10-02T22:09:23.835Z,11.03
2022-10-02T22:12:06.392Z,13.83
2022-10-02T22:14:37.839Z,19.83
2022-10-02T22:17:17.208Z,16.53
2022-10-02T22:20:11.123Z,12.33
2022-10-02T22:22:53.222Z,22.67
2022-10-02T22:25:37.171Z,20.30
2022-10-02T22:28:22.930Z,18.83
2022-10-02T22:31:19.972Z,46.33
2022-10-02T22:34:04.030Z,9.53
2022-10-02T22:36:56.795Z,23.43
2022-10-02T22:39:30.402Z,7.37
2022-10-02T22:42:03.561Z,26.83
2022-10-02T22:44:37.654Z,14.43
2022-10-02T22:47:12.161Z,16.17
2022-10-02T22:49:44.290Z,29.03
2022-10-02T22:52:21.154Z,19.60
2022-10-02T22:54:56.911Z,9.63
2022-10-02T22:57:34.696Z,15.93
2022-10-02T23:00:06.851Z,6.33
2022-10-02T23:02:44.146Z,11.80
2022-10-02T23:05:19.180Z,10.90
2022-10-02T23:07:52.979Z,17.23
2022-10-02T23:10:33.170Z,10.27
2022-10-02T23:13:06.823Z,10.87
2022-10-02T23:15:53.801Z,56.07
2022-10-02T23:18:37.512Z,7.97
2022-10-02T23:21:19.167Z,11.20
2022-10-02T23:23:55.940Z,14.10
2022-10-02T23:26:33.353Z,11.00
2022-10-02T23:29:13.208Z,12.60
2022-10-02T23:31:51.272Z,7.33
2022-10-02T23:34:30.870Z,13.90
2022-10-02T23:37:03.047Z,10.33
2022-10-02T23:39:40.530Z,7.90
2022-10-02T23:42:15.210Z,7.80
2022-10-02T23:44:49.738Z,10.90
2022-10-02T23:47:29.263Z,9.27
2022-10-02T23:49:58.767Z,13.70
2022-10-02T23:52:56.514Z,12.23
2022-10-02T23:55:41.303Z,13.43
2022-10-02T23:58:28.269Z,10.83
